createdAt,value
2017-08-15T00:01:47.313Z,100200.84
2017-08-15T00:04:55.723Z,100192.59
2017-08-15T00:07:57.229Z,100194.62
2017-08-15T00:10:59.377Z,100187.80
2017-08-15T00:14:00.824Z,100188.64
2017-08-15T00:17:02.258Z,100192.63
2017-08-15T00:20:03.689Z,100185.64
2017-08-15T00:23:05.123Z,100184.16
2017-08-15T00:26:07.253Z,100184.98
2017-08-15T00:29:08.686Z,100176.59
2017-08-15T00:32:10.480Z,100178.73
2017-08-15T00:35:11.974Z,100178.05
2017-08-15T00:38:13.527Z,100178.09
2017-08-15T00:41:14.965Z,100175.53
2017-08-15T00:44:17.222Z,100173.83
2017-08-15T00:47:19.403Z,100172.75
2017-08-15T00:50:21.642Z,100169.58
2017-08-15T00:53:23.059Z,100175.35
2017-08-15T00:56:24.643Z,100173.31
2017-08-15T00:59:26.063Z,100161.80
2017-08-15T01:02:27.521Z,100170.62
2017-08-15T01:05:29.002Z,100169.63
2017-08-15T01:08:30.436Z,100170.84
2017-08-15T01:11:31.941Z,100159.94
2017-08-15T01:14:34.154Z,100163.75
2017-08-15T01:17:35.592Z,100167.45
2017-08-15T01:20:37.042Z,100154.73
2017-08-15T01:23:38.507Z,100156.74
2017-08-15T01:26:40.132Z,100156.69
2017-08-15T01:29:42.335Z,100156.34
2017-08-15T01:32:43.774Z,100158.69
2017-08-15T01:35:45.202Z,100154.14
2017-08-15T01:38:47.389Z,100150.36
2017-08-15T01:41:48.973Z,100152.84
2017-08-15T01:44:50.424Z,100157.48
2017-08-15T01:47:51.876Z,100147.94
2017-08-15T01:50:53.354Z,100146.11
2017-08-15T01:53:54.916Z,100146.39
2017-08-15T01:56:56.341Z,100146.28
2017-08-15T01:59:57.779Z,100145.55
2017-08-15T02:02:59.177Z,100139.16
2017-08-15T02:06:00.608Z,100147.23
2017-08-15T02:09:02.080Z,100142.80
2017-08-15T02:12:04.262Z,100143.16
2017-08-15T02:15:06.409Z,100139.07
2017-08-15T02:18:07.859Z,100135.78
2017-08-15T02:21:09.380Z,100143.89
2017-08-15T02:24:10.725Z,100139.20
2017-08-15T02:27:12.144Z,100145.73
2017-08-15T02:30:14.237Z,100149.91
2017-08-15T02:33:15.712Z,100153.21
2017-08-15T02:36:17.150Z,100154.12
2017-08-15T02:39:18.557Z,100153.86
2017-08-15T02:42:20.089Z,100149.70
2017-08-15T02:45:21.503Z,100133.84
2017-08-15T02:48:22.994Z,100133.01
2017-08-15T02:51:24.389Z,100141.57
2017-08-15T02:54:26.585Z,100133.05
2017-08-15T02:57:28.213Z,100131.17
2017-08-15T03:00:30.366Z,100133.38
2017-08-15T03:03:32.527Z,100119.02
2017-08-15T03:06:33.964Z,100125.00
2017-08-15T03:09:35.481Z,100132.22
2017-08-15T03:12:36.904Z,100139.52
2017-08-15T03:15:39.133Z,100129.02
2017-08-15T03:18:40.540Z,100136.98
2017-08-15T03:21:41.991Z,100137.48
2017-08-15T03:24:43.375Z,100143.73
2017-08-15T03:27:44.788Z,100142.81
2017-08-15T03:30:46.920Z,100140.86
2017-08-15T03:33:48.335Z,100131.69
2017-08-15T03:36:49.728Z,100134.75
2017-08-15T03:39:51.149Z,100130.68
2017-08-15T03:42:52.546Z,100135.44
2017-08-15T03:45:54.676Z,100130.96
2017-08-15T03:48:56.075Z,100129.97
2017-08-15T03:51:58.149Z,100140.15
2017-08-15T03:54:59.648Z,100132.88
2017-08-15T03:58:01.135Z,100126.21
2017-08-15T04:01:03.286Z,100121.28
2017-08-15T04:04:04.700Z,100118.74
2017-08-15T04:07:06.201Z,100118.42
2017-08-15T04:10:07.590Z,100111.15
2017-08-15T04:13:08.956Z,100106.80
2017-08-15T04:16:10.378Z,100112.56
2017-08-15T04:19:12.627Z,100101.25
2017-08-15T04:22:14.021Z,100100.44
2017-08-15T04:25:15.565Z,100094.58
2017-08-15T04:28:16.950Z,100097.45
2017-08-15T04:31:18.366Z,100091.28
2017-08-15T04:34:19.782Z,100097.02
2017-08-15T04:37:21.177Z,100093.77
2017-08-15T04:40:22.568Z,100092.52
2017-08-15T04:43:23.996Z,100095.35
2017-08-15T04:46:25.383Z,100089.24
2017-08-15T04:49:26.791Z,100096.02
2017-08-15T04:52:28.360Z,100093.14
2017-08-15T04:55:30.611Z,100088.86
2017-08-15T04:58:32.074Z,100098.13
2017-08-15T05:01:34.146Z,100087.50
2017-08-15T05:04:35.601Z,100082.78
2017-08-15T05:07:37.122Z,100091.68
2017-08-15T05:10:39.279Z,100089.09
2017-08-15T05:13:41.371Z,100086.40
2017-08-15T05:16:42.747Z,100084.41
2017-08-15T05:19:44.438Z,100080.22
2017-08-15T05:22:45.783Z,100082.75
2017-08-15T05:25:47.197Z,100083.61
2017-08-15T05:28:48.582Z,100090.69
2017-08-15T05:31:50.002Z,100082.28
2017-08-15T05:34:51.361Z,100089.14
2017-08-15T05:37:52.809Z,100084.97
2017-08-15T05:40:54.198Z,100092.38
2017-08-15T05:43:55.589Z,100098.41
2017-08-15T05:46:57.054Z,100096.41
2017-08-15T05:49:58.429Z,100098.89
2017-08-15T05:52:59.796Z,100097.44
2017-08-15T05:56:01.278Z,100092.22
2017-08-15T05:59:02.851Z,100083.16
2017-08-15T06:02:04.285Z,100073.05
2017-08-15T06:05:05.754Z,100076.06
2017-08-15T06:08:07.132Z,100071.45
2017-08-15T06:11:08.497Z,100062.86
2017-08-15T06:14:09.858Z,100060.44
2017-08-15T06:17:11.262Z,100062.44
2017-08-15T06:20:12.612Z,100060.43
2017-08-15T06:23:14.003Z,100053.77
2017-08-15T06:26:15.677Z,100029.98
2017-08-15T06:29:16.990Z,100019.30
2017-08-15T06:32:18.368Z,100021.86
2017-08-15T06:35:19.737Z,100030.33
2017-08-15T06:38:21.124Z,100049.54
2017-08-15T06:41:22.455Z,100047.84
2017-08-15T06:44:24.603Z,100052.81
2017-08-15T06:47:25.937Z,100071.27
2017-08-15T06:50:27.345Z,100070.24
2017-08-15T06:53:28.692Z,100069.83
2017-08-15T06:56:30.073Z,100076.81
2017-08-15T06:59:34.292Z,100080.42
2017-08-15T07:02:35.700Z,100090.25
2017-08-15T07:05:37.821Z,100099.17
2017-08-15T07:08:39.160Z,100077.33
2017-08-15T07:11:40.603Z,100051.97
2017-08-15T07:14:41.973Z,100060.33
2017-08-15T07:17:43.359Z,100058.45
2017-08-15T07:20:44.681Z,100055.05
2017-08-15T07:23:46.073Z,100057.36
2017-08-15T07:26:48.204Z,100055.52
2017-08-15T07:29:49.529Z,100046.15
2017-08-15T07:32:50.904Z,100049.66
2017-08-15T07:35:52.296Z,100048.50
2017-08-15T07:38:53.673Z,100050.41
2017-08-15T07:41:55.006Z,100047.27
2017-08-15T07:44:56.387Z,100034.95
2017-08-15T07:47:57.972Z,100031.37
2017-08-15T07:50:59.357Z,100040.25
2017-08-15T07:54:00.721Z,100035.86
2017-08-15T07:57:02.120Z,100038.85
2017-08-15T08:00:03.528Z,100033.23
2017-08-15T08:03:04.845Z,100051.91
2017-08-15T08:06:06.993Z,100079.79
2017-08-15T08:09:08.353Z,100097.41
2017-08-15T08:12:09.758Z,100106.77
2017-08-15T08:15:11.226Z,100125.27
2017-08-15T08:18:12.562Z,100129.94
2017-08-15T08:21:13.914Z,100131.36
2017-08-15T08:24:15.235Z,100128.50
2017-08-15T08:27:16.619Z,100127.41
2017-08-15T08:30:17.982Z,100124.55
2017-08-15T08:33:19.397Z,100125.28
2017-08-15T08:36:20.756Z,100120.83
2017-08-15T08:39:22.110Z,100136.64
2017-08-15T08:42:23.590Z,100149.27
2017-08-15T08:45:24.922Z,100155.74
2017-08-15T08:48:26.335Z,100170.20
2017-08-15T08:51:27.696Z,100176.94
2017-08-15T08:54:29.056Z,100189.41
2017-08-15T08:57:30.393Z,100196.22
2017-08-15T09:00:31.853Z,100209.55
2017-08-15T09:03:33.190Z,100197.27
2017-08-15T09:06:34.561Z,100198.19
2017-08-15T09:09:35.913Z,100217.17
2017-08-15T09:12:37.294Z,100216.63
2017-08-15T09:15:38.641Z,100212.10
2017-08-15T09:18:40.049Z,100201.90
2017-08-15T09:21:48.534Z,100191.33
2017-08-15T09:24:49.888Z,100193.31
2017-08-15T09:27:51.382Z,100183.18
2017-08-15T09:30:52.740Z,100176.37
2017-08-15T09:33:54.177Z,100170.28
2017-08-15T09:36:55.562Z,100181.75
2017-08-15T09:39:56.985Z,100172.59
2017-08-15T09:42:58.350Z,100166.27
2017-08-15T09:45:59.780Z,100167.02
2017-08-15T09:49:01.134Z,100178.48
2017-08-15T09:52:02.529Z,100179.14
2017-08-15T09:55:03.884Z,100173.91
2017-08-15T09:58:11.303Z,100182.67
2017-08-15T10:01:12.651Z,100191.19
2017-08-15T10:04:14.740Z,100195.13
2017-08-15T10:07:16.097Z,100199.92
2017-08-15T10:10:17.581Z,100194.27
2017-08-15T10:13:18.926Z,100198.62
2017-08-15T10:16:20.301Z,100193.43
2017-08-15T10:19:21.669Z,100191.70
2017-08-15T10:22:23.815Z,100194.13
2017-08-15T10:25:25.178Z,100195.22
2017-08-15T10:28:26.537Z,100189.56
2017-08-15T10:31:28.773Z,100173.94
2017-08-15T10:34:33.998Z,100191.13
2017-08-15T10:37:35.356Z,100175.38
2017-08-15T10:40:36.715Z,100160.13
2017-08-15T10:43:38.418Z,100154.09
2017-08-15T10:46:39.767Z,100167.30
2017-08-15T10:49:41.858Z,100154.81
2017-08-15T10:52:43.175Z,100142.37
2017-08-15T10:55:45.321Z,100125.78
2017-08-15T10:58:46.850Z,100091.87
2017-08-15T11:01:48.214Z,100074.37
2017-08-15T11:04:49.604Z,100029.69
2017-08-15T11:07:51.742Z,99955.75
2017-08-15T11:10:53.163Z,99898.39
2017-08-15T11:13:54.550Z,99874.45
2017-08-15T11:16:55.993Z,99853.33
2017-08-15T11:19:57.798Z,99866.52
2017-08-15T11:22:59.338Z,99916.69
2017-08-15T11:26:01.489Z,99964.27
2017-08-15T11:29:02.835Z,99950.99
2017-08-15T11:35:12.366Z,99954.73
2017-08-15T11:38:13.765Z,99952.91
2017-08-15T11:41:15.862Z,99940.67
2017-08-15T11:44:17.301Z,99946.63
2017-08-15T11:47:19.449Z,99946.95
2017-08-15T11:50:20.819Z,99947.25
2017-08-15T11:53:24.605Z,99970.81
2017-08-15T11:56:26.032Z,99971.94
2017-08-15T11:59:27.448Z,99974.47
2017-08-15T12:02:28.848Z,99972.67
2017-08-15T12:05:30.269Z,99974.89
2017-08-15T12:08:31.673Z,99971.91
2017-08-15T12:11:33.819Z,99964.98
2017-08-15T12:14:35.406Z,99959.90
2017-08-15T12:17:37.521Z,99964.70
2017-08-15T12:20:38.967Z,99955.72
2017-08-15T12:23:40.389Z,99965.05
2017-08-15T12:26:43.166Z,99967.45
2017-08-15T12:29:44.628Z,99968.00
2017-08-15T12:32:46.064Z,99968.70
2017-08-15T12:35:48.252Z,99969.20
2017-08-15T12:38:49.714Z,99979.52
2017-08-15T12:41:51.165Z,99993.52
2017-08-15T12:44:52.655Z,99987.83
2017-08-15T12:47:54.069Z,99990.89
2017-08-15T12:50:55.505Z,99984.89
2017-08-15T12:53:57.017Z,99977.79
2017-08-15T12:56:58.391Z,99976.53
2017-08-15T13:00:00.578Z,99973.77
2017-08-15T13:03:02.792Z,99977.48
2017-08-15T13:06:04.248Z,99964.59
2017-08-15T13:09:05.748Z,99971.49
2017-08-15T13:12:07.955Z,99968.31
2017-08-15T13:15:09.449Z,99975.66
2017-08-15T13:18:10.933Z,99975.17
2017-08-15T13:21:12.699Z,99977.11
2017-08-15T13:24:14.151Z,99981.53
2017-08-15T13:27:15.616Z,99972.16
2017-08-15T13:30:17.193Z,99970.57
2017-08-15T13:33:18.626Z,99971.64
2017-08-15T13:36:20.059Z,99976.80
2017-08-15T13:39:21.525Z,99978.30
2017-08-15T13:42:22.949Z,99979.58
2017-08-15T13:45:25.173Z,99982.56
2017-08-15T13:48:26.590Z,99981.27
2017-08-15T13:51:28.465Z,99984.52
2017-08-15T13:54:29.924Z,99984.59
2017-08-15T13:57:31.389Z,99983.86
2017-08-15T14:00:32.979Z,100001.61
2017-08-15T14:03:34.418Z,100016.88
2017-08-15T14:06:35.846Z,100021.32
2017-08-15T14:09:37.266Z,100026.77
2017-08-15T14:12:38.688Z,100030.23
2017-08-15T14:15:40.149Z,100036.75
2017-08-15T14:18:42.314Z,100046.55
2017-08-15T14:21:43.723Z,100059.30
2017-08-15T14:24:45.137Z,100072.76
2017-08-15T14:27:47.307Z,100082.30
2017-08-15T14:30:49.492Z,100097.53
2017-08-15T14:33:50.887Z,100096.08
2017-08-15T14:36:52.254Z,100109.88
2017-08-15T14:40:00.648Z,100105.10
2017-08-15T14:43:02.210Z,100116.08
2017-08-15T14:46:03.864Z,100101.25
2017-08-15T14:49:05.237Z,100109.59
2017-08-15T14:52:06.662Z,100097.20
2017-08-15T14:55:08.081Z,100092.88
2017-08-15T14:58:09.482Z,100118.13
2017-08-15T15:01:11.632Z,100115.94
2017-08-15T15:04:13.061Z,100103.42
2017-08-15T15:07:14.461Z,100119.48
2017-08-15T15:10:15.892Z,100115.97
2017-08-15T15:13:17.448Z,100108.77
2017-08-15T15:16:18.813Z,100082.94
2017-08-15T15:19:20.225Z,100086.66
2017-08-15T15:22:21.622Z,100091.45
2017-08-15T15:25:23.045Z,100088.55
2017-08-15T15:28:24.438Z,100099.62
2017-08-15T15:31:26.604Z,100084.39
2017-08-15T15:34:28.700Z,100090.67
2017-08-15T15:37:30.152Z,100088.34
2017-08-15T15:40:31.564Z,100089.63
2017-08-15T15:43:32.950Z,100090.13
2017-08-15T15:46:34.416Z,100088.35
2017-08-15T15:49:35.836Z,100081.14
2017-08-15T15:52:37.273Z,100069.68
2017-08-15T15:55:38.601Z,100071.61
2017-08-15T15:58:39.974Z,100066.30
2017-08-15T16:01:41.312Z,100073.66
2017-08-15T16:04:42.727Z,100077.86
2017-08-15T16:07:44.081Z,100067.13
2017-08-15T16:10:45.470Z,100076.91
2017-08-15T16:13:46.948Z,100074.47
2017-08-15T16:16:49.018Z,100073.14
2017-08-15T16:19:50.860Z,100079.16
2017-08-15T16:22:52.244Z,100086.41
2017-08-15T16:25:53.881Z,100084.28
2017-08-15T16:28:55.384Z,100095.05
2017-08-15T16:31:57.113Z,100103.67
2017-08-15T16:34:58.469Z,100107.63
2017-08-15T16:37:59.868Z,100104.52
2017-08-15T16:41:01.877Z,100102.05
2017-08-15T16:44:03.316Z,100111.52
2017-08-15T16:47:04.752Z,100106.17
2017-08-15T16:50:06.869Z,100095.55
2017-08-15T16:53:08.508Z,100102.16
2017-08-15T16:56:09.814Z,100094.83
2017-08-15T16:59:11.210Z,100084.70
2017-08-15T17:02:12.593Z,100086.55
2017-08-15T17:05:14.026Z,100098.83
2017-08-15T17:08:15.604Z,100094.11
2017-08-15T17:11:16.956Z,100100.42
2017-08-15T17:14:19.208Z,100101.28
2017-08-15T17:17:20.570Z,100097.73
2017-08-15T17:20:21.958Z,100099.50
2017-08-15T17:23:24.025Z,100098.65
2017-08-15T17:26:26.140Z,100103.14
2017-08-15T17:29:27.812Z,100094.81
2017-08-15T17:32:29.345Z,100091.03
2017-08-15T17:35:31.654Z,100090.16
2017-08-15T17:38:33.089Z,100095.69
2017-08-15T17:41:35.239Z,100100.80
2017-08-15T17:44:36.790Z,100103.24
2017-08-15T17:47:39.431Z,100118.95
2017-08-15T17:50:41.944Z,100114.02
2017-08-15T17:53:43.432Z,100118.31
2017-08-15T17:56:45.731Z,100118.73
2017-08-15T17:59:48.617Z,100115.63
2017-08-15T18:02:50.256Z,100113.60
2017-08-15T18:05:51.686Z,100129.38
2017-08-15T18:08:53.053Z,100125.50
2017-08-15T18:11:54.454Z,100129.86
2017-08-15T18:14:55.876Z,100143.70
2017-08-15T18:17:57.704Z,100138.78
2017-08-15T18:21:00.899Z,100135.52
2017-08-15T18:24:02.602Z,100128.80
2017-08-15T18:27:05.057Z,100132.53
2017-08-15T18:30:06.418Z,100131.86
2017-08-15T18:33:07.815Z,100134.09
2017-08-15T18:36:10.363Z,100129.66
2017-08-15T18:39:12.104Z,100133.17
2017-08-15T18:42:14.649Z,100133.62
2017-08-15T18:45:17.313Z,100135.66
2017-08-15T18:48:19.586Z,100145.45
2017-08-15T18:51:20.984Z,100145.87
2017-08-15T18:54:22.404Z,100157.48
2017-08-15T18:57:26.029Z,100155.96
2017-08-15T19:00:27.912Z,100159.04
2017-08-15T19:03:30.615Z,100170.47
2017-08-15T19:06:32.979Z,100175.56
2017-08-15T19:09:36.701Z,100175.08
2017-08-15T19:12:38.800Z,100182.32
2017-08-15T19:15:40.130Z,100181.61
2017-08-15T19:18:42.706Z,100186.27
2017-08-15T19:21:44.105Z,100192.38
2017-08-15T19:24:47.363Z,100187.48
2017-08-15T19:27:48.997Z,100189.05
2017-08-15T19:30:50.436Z,100187.82
2017-08-15T19:33:52.573Z,100184.86
2017-08-15T19:36:54.834Z,100186.66
2017-08-15T19:39:58.146Z,100186.16
2017-08-15T19:43:00.285Z,100187.38
2017-08-15T19:46:04.001Z,100193.91
2017-08-15T19:49:06.629Z,100205.00
2017-08-15T19:52:09.249Z,100205.25
2017-08-15T19:55:11.712Z,100206.87
2017-08-15T19:58:13.399Z,100205.92
2017-08-15T20:01:14.949Z,100216.95
2017-08-15T20:04:16.958Z,100227.34
2017-08-15T20:07:18.486Z,100218.72
2017-08-15T20:10:19.842Z,100228.72
2017-08-15T20:13:21.225Z,100217.14
2017-08-15T20:16:23.355Z,100222.69
2017-08-15T20:19:24.728Z,100238.55
2017-08-15T20:22:26.875Z,100233.30
2017-08-15T20:25:28.238Z,100249.82
2017-08-15T20:28:29.738Z,100251.23
2017-08-15T20:31:31.387Z,100246.21
2017-08-15T20:34:32.731Z,100253.91
2017-08-15T20:37:34.238Z,100262.22
2017-08-15T20:40:35.631Z,100264.33
2017-08-15T20:43:37.059Z,100259.45
2017-08-15T20:46:39.155Z,100265.55
2017-08-15T20:49:40.594Z,100255.33
2017-08-15T20:52:41.982Z,100257.74
2017-08-15T20:55:43.370Z,100269.57
2017-08-15T20:58:44.850Z,100270.33
2017-08-15T21:01:46.250Z,100270.68
2017-08-15T21:04:47.664Z,100275.55
2017-08-15T21:07:49.122Z,100280.93
2017-08-15T21:10:50.517Z,100288.43
2017-08-15T21:13:51.899Z,100275.09
2017-08-15T21:16:54.038Z,100281.07
2017-08-15T21:19:55.529Z,100279.45
2017-08-15T21:22:56.974Z,100286.11
2017-08-15T21:29:00.355Z,100292.58
2017-08-15T21:32:01.779Z,100301.42
2017-08-15T21:35:03.209Z,100311.30
2017-08-15T21:38:04.591Z,100318.60
2017-08-15T21:41:06.021Z,100311.84
2017-08-15T21:44:07.404Z,100317.20
2017-08-15T21:47:08.835Z,100326.98
2017-08-15T21:50:10.225Z,100331.45
2017-08-15T21:53:11.589Z,100341.43
2017-08-15T21:56:13.069Z,100328.24
2017-08-15T21:59:14.421Z,100340.45
2017-08-15T22:02:20.599Z,100347.45
2017-08-15T22:05:21.959Z,100349.39
2017-08-15T22:08:23.315Z,100372.87
2017-08-15T22:11:24.712Z,100365.31
2017-08-15T22:14:26.120Z,100368.59
2017-08-15T22:17:27.877Z,100363.13
2017-08-15T22:20:29.272Z,100369.36
2017-08-15T22:23:30.637Z,100373.30
2017-08-15T22:26:32.734Z,100377.25
2017-08-15T22:29:34.190Z,100379.33
2017-08-15T22:32:35.657Z,100373.39
2017-08-15T22:35:37.084Z,100376.95
2017-08-15T22:38:38.549Z,100383.71
2017-08-15T22:41:39.981Z,100389.02
2017-08-15T22:44:41.422Z,100382.06
2017-08-15T22:47:43.479Z,100390.39
2017-08-15T22:50:44.910Z,100382.58
2017-08-15T22:53:46.297Z,100390.24
2017-08-15T22:56:48.417Z,100396.72
2017-08-15T23:02:58.022Z,100386.27
2017-08-15T23:06:00.170Z,100397.09
2017-08-15T23:09:01.533Z,100411.66
2017-08-15T23:12:03.675Z,100410.70
2017-08-15T23:15:05.063Z,100412.16
2017-08-15T23:18:06.439Z,100409.81
2017-08-15T23:21:08.044Z,100412.55
2017-08-15T23:24:09.384Z,100408.20
2017-08-15T23:27:10.759Z,100411.52
2017-08-15T23:30:12.851Z,100415.05
2017-08-15T23:33:14.237Z,100420.21
2017-08-15T23:36:15.636Z,100427.13
2017-08-15T23:39:17.779Z,100423.19
2017-08-15T23:42:19.206Z,100429.69
2017-08-15T23:45:20.578Z,100425.22
2017-08-15T23:48:22.023Z,100434.61
2017-08-15T23:51:23.415Z,100437.80
2017-08-15T23:54:24.780Z,100428.24
2017-08-15T23:57:26.500Z,100433.11
